sensor_id;sensor_type;location;lat;lon;timestamp;temperature;humidity
2174;DHT22;1093;51.424;11.764;2022-10-14T00:00:12;12.20;1.40
2174;DHT22;1093;51.424;11.764;2022-10-14T00:02:39;12.20;1.40
2174;DHT22;1093;51.424;11.764;2022-10-14T00:05:06;12.20;1.40
2174;DHT22;1093;51.424;11.764;2022-10-14T00:07:35;12.20;1.40
2174;DHT22;1093;51.424;11.764;2022-10-14T00:10:06;12.20;1.40
2174;DHT22;1093;51.424;11.764;2022-10-14T00:12:33;12.20;1.40
2174;DHT22;1093;51.424;11.764;2022-10-14T00:15:00;12.20;1.40
2174;DHT22;1093;51.424;11.764;2022-10-14T00:17:27;12.20;1.40
2174;DHT22;1093;51.424;11.764;2022-10-14T00:19:54;12.20;1.40
2174;DHT22;1093;51.424;11.764;2022-10-14T00:22:20;12.20;1.40
2174;DHT22;1093;51.424;11.764;2022-10-14T00:24:49;12.20;1.40
2174;DHT22;1093;51.424;11.764;2022-10-14T00:27:15;12.10;1.40
2174;DHT22;1093;51.424;11.764;2022-10-14T00:29:42;12.10;1.40
2174;DHT22;1093;51.424;11.764;2022-10-14T00:32:09;12.10;1.40
2174;DHT22;1093;51.424;11.764;2022-10-14T00:34:36;12.10;1.40
2174;DHT22;1093;51.424;11.764;2022-10-14T00:37:03;12.10;1.40
2174;DHT22;1093;51.424;11.764;2022-10-14T00:39:30;12.10;1.40
2174;DHT22;1093;51.424;11.764;2022-10-14T00:41:58;12.10;1.40
2174;DHT22;1093;51.424;11.764;2022-10-14T00:45:00;12.10;1.40
2174;DHT22;1093;51.424;11.764;2022-10-14T00:47:30;12.10;1.40
2174;DHT22;1093;51.424;11.764;2022-10-14T00:49:58;12.10;1.40
2174;DHT22;1093;51.424;11.764;2022-10-14T00:52:26;12.10;1.40
2174;DHT22;1093;51.424;11.764;2022-10-14T00:54:55;12.10;1.40
2174;DHT22;1093;51.424;11.764;2022-10-14T00:57:26;12.10;1.40
2174;DHT22;1093;51.424;11.764;2022-10-14T00:59:57;12.00;1.40
2174;DHT22;1093;51.424;11.764;2022-10-14T01:02:25;12.00;1.40
2174;DHT22;1093;51.424;11.764;2022-10-14T01:04:52;12.00;1.40
2174;DHT22;1093;51.424;11.764;2022-10-14T01:07:29;12.00;1.40
2174;DHT22;1093;51.424;11.764;2022-10-14T01:10:02;12.00;1.40
2174;DHT22;1093;51.424;11.764;2022-10-14T01:12:40;12.00;1.40
2174;DHT22;1093;51.424;11.764;2022-10-14T01:15:16;12.00;1.40
2174;DHT22;1093;51.424;11.764;2022-10-14T01:17:54;12.00;1.40
2174;DHT22;1093;51.424;11.764;2022-10-14T01:20:40;12.00;1.40
2174;DHT22;1093;51.424;11.764;2022-10-14T01:23:23;12.00;1.40
2174;DHT22;1093;51.424;11.764;2022-10-14T01:25:57;11.90;1.40
2174;DHT22;1093;51.424;11.764;2022-10-14T01:28:34;12.00;1.40
2174;DHT22;1093;51.424;11.764;2022-10-14T01:31:16;11.90;1.40
2174;DHT22;1093;51.424;11.764;2022-10-14T01:33:44;11.90;1.40
2174;DHT22;1093;51.424;11.764;2022-10-14T01:36:16;11.90;1.40
2174;DHT22;1093;51.424;11.764;2022-10-14T01:38:48;11.90;1.40
2174;DHT22;1093;51.424;11.764;2022-10-14T01:41:19;11.90;1.40
2174;DHT22;1093;51.424;11.764;2022-10-14T01:43:49;11.90;1.40
2174;DHT22;1093;51.424;11.764;2022-10-14T01:46:21;11.90;1.40
2174;DHT22;1093;51.424;11.764;2022-10-14T01:48:53;11.90;1.40
2174;DHT22;1093;51.424;11.764;2022-10-14T01:51:23;11.90;1.40
2174;DHT22;1093;51.424;11.764;2022-10-14T01:53:57;11.90;1.40
2174;DHT22;1093;51.424;11.764;2022-10-14T01:56:27;11.90;1.40
2174;DHT22;1093;51.424;11.764;2022-10-14T01:58:56;11.90;1.40
2174;DHT22;1093;51.424;11.764;2022-10-14T02:01:25;11.90;1.40
2174;DHT22;1093;51.424;11.764;2022-10-14T02:03:52;11.90;1.40
2174;DHT22;1093;51.424;11.764;2022-10-14T02:06:23;11.90;1.40
2174;DHT22;1093;51.424;11.764;2022-10-14T02:09:02;11.90;1.40
2174;DHT22;1093;51.424;11.764;2022-10-14T02:11:37;11.90;1.40
2174;DHT22;1093;51.424;11.764;2022-10-14T02:14:11;11.90;1.40
2174;DHT22;1093;51.424;11.764;2022-10-14T02:16:48;11.90;1.40
2174;DHT22;1093;51.424;11.764;2022-10-14T02:19:24;11.90;1.40
2174;DHT22;1093;51.424;11.764;2022-10-14T02:21:56;11.90;1.40
2174;DHT22;1093;51.424;11.764;2022-10-14T02:24:28;11.90;1.40
2174;DHT22;1093;51.424;11.764;2022-10-14T02:26:59;11.90;1.40
2174;DHT22;1093;51.424;11.764;2022-10-14T02:29:28;11.90;1.40
2174;DHT22;1093;51.424;11.764;2022-10-14T02:31:58;11.90;1.40
2174;DHT22;1093;51.424;11.764;2022-10-14T02:34:25;11.90;1.40
2174;DHT22;1093;51.424;11.764;2022-10-14T02:36:53;11.90;1.40
2174;DHT22;1093;51.424;11.764;2022-10-14T02:39:24;11.90;1.40
2174;DHT22;1093;51.424;11.764;2022-10-14T02:41:52;11.90;1.40
2174;DHT22;1093;51.424;11.764;2022-10-14T02:44:19;11.90;1.40
2174;DHT22;1093;51.424;11.764;2022-10-14T02:46:47;11.90;1.40
2174;DHT22;1093;51.424;11.764;2022-10-14T02:49:16;11.90;1.40
2174;DHT22;1093;51.424;11.764;2022-10-14T02:51:43;11.90;1.40
2174;DHT22;1093;51.424;11.764;2022-10-14T02:54:10;11.90;1.40
2174;DHT22;1093;51.424;11.764;2022-10-14T02:56:37;11.90;1.40
2174;DHT22;1093;51.424;11.764;2022-10-14T02:59:04;11.90;1.40
2174;DHT22;1093;51.424;11.764;2022-10-14T03:01:31;11.90;1.40
2174;DHT22;1093;51.424;11.764;2022-10-14T03:03:58;11.90;1.40
2174;DHT22;1093;51.424;11.764;2022-10-14T03:06:26;11.90;1.40
2174;DHT22;1093;51.424;11.764;2022-10-14T03:08:53;11.90;1.40
2174;DHT22;1093;51.424;11.764;2022-10-14T03:11:21;11.90;1.40
2174;DHT22;1093;51.424;11.764;2022-10-14T03:13:47;11.80;1.40
2174;DHT22;1093;51.424;11.764;2022-10-14T03:16:14;11.80;1.40
2174;DHT22;1093;51.424;11.764;2022-10-14T03:18:41;11.80;1.40
2174;DHT22;1093;51.424;11.764;2022-10-14T03:21:08;11.80;1.40
2174;DHT22;1093;51.424;11.764;2022-10-14T03:23:37;11.80;1.40
2174;DHT22;1093;51.424;11.764;2022-10-14T03:26:03;11.80;1.40
2174;DHT22;1093;51.424;11.764;2022-10-14T03:28:30;11.70;1.40
2174;DHT22;1093;51.424;11.764;2022-10-14T03:30:57;11.70;1.40
2174;DHT22;1093;51.424;11.764;2022-10-14T03:33:24;11.70;1.40
2174;DHT22;1093;51.424;11.764;2022-10-14T03:35:51;11.70;1.40
2174;DHT22;1093;51.424;11.764;2022-10-14T03:38:18;11.70;1.40
2174;DHT22;1093;51.424;11.764;2022-10-14T03:40:46;11.60;1.40
2174;DHT22;1093;51.424;11.764;2022-10-14T03:43:13;11.60;1.40
2174;DHT22;1093;51.424;11.764;2022-10-14T03:45:40;11.60;1.40
2174;DHT22;1093;51.424;11.764;2022-10-14T03:48:07;11.60;1.40
2174;DHT22;1093;51.424;11.764;2022-10-14T03:50:34;11.60;1.40
2174;DHT22;1093;51.424;11.764;2022-10-14T03:53:01;11.60;1.40
2174;DHT22;1093;51.424;11.764;2022-10-14T03:55:28;11.50;1.40
2174;DHT22;1093;51.424;11.764;2022-10-14T03:57:57;11.60;1.40
2174;DHT22;1093;51.424;11.764;2022-10-14T04:00:24;11.50;1.40
2174;DHT22;1093;51.424;11.764;2022-10-14T04:02:51;11.50;1.40
2174;DHT22;1093;51.424;11.764;2022-10-14T04:05:17;11.50;1.40
2174;DHT22;1093;51.424;11.764;2022-10-14T04:07:44;11.50;1.40
2174;DHT22;1093;51.424;11.764;2022-10-14T04:10:11;11.40;1.40
2174;DHT22;1093;51.424;11.764;2022-10-14T04:12:38;11.40;1.40
2174;DHT22;1093;51.424;11.764;2022-10-14T04:15:07;11.40;1.40
2174;DHT22;1093;51.424;11.764;2022-10-14T04:17:34;11.40;1.40
2174;DHT22;1093;51.424;11.764;2022-10-14T04:20:01;11.40;1.40
2174;DHT22;1093;51.424;11.764;2022-10-14T04:22:28;11.40;1.40
2174;DHT22;1093;51.424;11.764;2022-10-14T04:24:55;11.40;1.40
2174;DHT22;1093;51.424;11.764;2022-10-14T04:27:22;11.40;1.40
2174;DHT22;1093;51.424;11.764;2022-10-14T04:29:49;11.40;1.40
2174;DHT22;1093;51.424;11.764;2022-10-14T04:32:18;11.40;1.40
2174;DHT22;1093;51.424;11.764;2022-10-14T04:34:45;11.30;1.40
2174;DHT22;1093;51.424;11.764;2022-10-14T04:37:13;11.30;1.40
2174;DHT22;1093;51.424;11.764;2022-10-14T04:39:39;11.30;1.40
2174;DHT22;1093;51.424;11.764;2022-10-14T04:42:06;11.30;1.40
2174;DHT22;1093;51.424;11.764;2022-10-14T04:44:33;11.20;1.40
2174;DHT22;1093;51.424;11.764;2022-10-14T04:47:00;11.20;1.40
2174;DHT22;1093;51.424;11.764;2022-10-14T04:49:28;11.20;1.40
2174;DHT22;1093;51.424;11.764;2022-10-14T04:51:55;11.20;1.40
2174;DHT22;1093;51.424;11.764;2022-10-14T04:54:22;11.20;1.40
2174;DHT22;1093;51.424;11.764;2022-10-14T04:56:49;11.10;1.40
2174;DHT22;1093;51.424;11.764;2022-10-14T04:59:16;11.10;1.40
2174;DHT22;1093;51.424;11.764;2022-10-14T05:01:43;11.10;1.40
2174;DHT22;1093;51.424;11.764;2022-10-14T05:04:10;11.10;1.40
2174;DHT22;1093;51.424;11.764;2022-10-14T05:06:38;11.10;1.40
2174;DHT22;1093;51.424;11.764;2022-10-14T05:09:05;11.10;1.40
2174;DHT22;1093;51.424;11.764;2022-10-14T05:11:32;11.10;1.40
2174;DHT22;1093;51.424;11.764;2022-10-14T05:13:59;11.10;1.40
2174;DHT22;1093;51.424;11.764;2022-10-14T05:16:26;11.10;1.40
2174;DHT22;1093;51.424;11.764;2022-10-14T05:18:53;11.10;1.40
2174;DHT22;1093;51.424;11.764;2022-10-14T05:21:20;11.10;1.40
2174;DHT22;1093;51.424;11.764;2022-10-14T05:23:49;11.00;1.40
2174;DHT22;1093;51.424;11.764;2022-10-14T05:26:16;11.00;1.40
2174;DHT22;1093;51.424;11.764;2022-10-14T05:28:43;11.00;1.40
2174;DHT22;1093;51.424;11.764;2022-10-14T05:31:10;11.00;1.40
2174;DHT22;1093;51.424;11.764;2022-10-14T05:33:36;11.00;1.40
2174;DHT22;1093;51.424;11.764;2022-10-14T05:36:04;11.00;1.40
2174;DHT22;1093;51.424;11.764;2022-10-14T05:38:31;11.00;1.40
2174;DHT22;1093;51.424;11.764;2022-10-14T05:41:00;11.00;1.40
2174;DHT22;1093;51.424;11.764;2022-10-14T05:43:27;11.00;1.40
2174;DHT22;1093;51.424;11.764;2022-10-14T05:45:54;10.90;1.40
2174;DHT22;1093;51.424;11.764;2022-10-14T05:48:21;11.00;1.40
2174;DHT22;1093;51.424;11.764;2022-10-14T05:50:47;10.90;1.40
2174;DHT22;1093;51.424;11.764;2022-10-14T05:53:14;10.90;1.40
2174;DHT22;1093;51.424;11.764;2022-10-14T05:55:41;11.00;1.40
2174;DHT22;1093;51.424;11.764;2022-10-14T05:58:09;10.90;1.40
2174;DHT22;1093;51.424;11.764;2022-10-14T06:00:36;10.90;1.40
2174;DHT22;1093;51.424;11.764;2022-10-14T06:03:03;10.90;1.40
2174;DHT22;1093;51.424;11.764;2022-10-14T06:05:30;11.00;1.40
2174;DHT22;1093;51.424;11.764;2022-10-14T06:08:00;11.00;1.40
2174;DHT22;1093;51.424;11.764;2022-10-14T06:10:27;11.00;1.40
2174;DHT22;1093;51.424;11.764;2022-10-14T06:12:55;11.00;1.40
2174;DHT22;1093;51.424;11.764;2022-10-14T06:15:23;11.00;1.40
2174;DHT22;1093;51.424;11.764;2022-10-14T06:17:50;11.00;1.40
2174;DHT22;1093;51.424;11.764;2022-10-14T06:20:17;11.00;1.40
2174;DHT22;1093;51.424;11.764;2022-10-14T06:22:44;11.00;1.40
2174;DHT22;1093;51.424;11.764;2022-10-14T06:25:11;11.10;1.40
2174;DHT22;1093;51.424;11.764;2022-10-14T06:27:38;11.10;1.40
2174;DHT22;1093;51.424;11.764;2022-10-14T06:30:08;11.10;1.40
2174;DHT22;1093;51.424;11.764;2022-10-14T06:32:36;11.20;1.40
2174;DHT22;1093;51.424;11.764;2022-10-14T06:35:04;11.20;1.40
2174;DHT22;1093;51.424;11.764;2022-10-14T06:37:31;11.20;1.40
2174;DHT22;1093;51.424;11.764;2022-10-14T06:39:58;11.20;1.40
2174;DHT22;1093;51.424;11.764;2022-10-14T06:42:25;11.30;1.40
2174;DHT22;1093;51.424;11.764;2022-10-14T06:44:51;11.30;1.40
2174;DHT22;1093;51.424;11.764;2022-10-14T06:47:18;11.30;1.40
2174;DHT22;1093;51.424;11.764;2022-10-14T06:49:47;11.40;1.40
2174;DHT22;1093;51.424;11.764;2022-10-14T06:52:13;11.40;1.40
2174;DHT22;1093;51.424;11.764;2022-10-14T06:54:41;11.40;1.40
2174;DHT22;1093;51.424;11.764;2022-10-14T06:57:08;11.50;1.40
2174;DHT22;1093;51.424;11.764;2022-10-14T06:59:34;11.50;1.40
2174;DHT22;1093;51.424;11.764;2022-10-14T07:02:03;11.60;1.40
2174;DHT22;1093;51.424;11.764;2022-10-14T07:04:30;11.60;1.40
2174;DHT22;1093;51.424;11.764;2022-10-14T07:06:58;11.70;1.40
2174;DHT22;1093;51.424;11.764;2022-10-14T07:09:25;11.80;1.40
2174;DHT22;1093;51.424;11.764;2022-10-14T07:11:52;11.80;1.40
2174;DHT22;1093;51.424;11.764;2022-10-14T07:14:19;11.90;1.40
2174;DHT22;1093;51.424;11.764;2022-10-14T07:16:46;12.00;1.40
2174;DHT22;1093;51.424;11.764;2022-10-14T07:19:13;12.10;1.40
2174;DHT22;1093;51.424;11.764;2022-10-14T07:21:40;12.20;1.40
2174;DHT22;1093;51.424;11.764;2022-10-14T07:24:09;12.30;1.40
2174;DHT22;1093;51.424;11.764;2022-10-14T07:26:37;12.50;1.40
2174;DHT22;1093;51.424;11.764;2022-10-14T07:29:04;12.60;1.40
2174;DHT22;1093;51.424;11.764;2022-10-14T07:31:32;12.70;1.40
2174;DHT22;1093;51.424;11.764;2022-10-14T07:33:59;12.80;1.40
2174;DHT22;1093;51.424;11.764;2022-10-14T07:36:27;12.90;1.40
2174;DHT22;1093;51.424;11.764;2022-10-14T07:38:54;13.00;1.40
2174;DHT22;1093;51.424;11.764;2022-10-14T07:41:23;13.00;1.40
2174;DHT22;1093;51.424;11.764;2022-10-14T07:43:51;13.20;1.40
2174;DHT22;1093;51.424;11.764;2022-10-14T07:46:21;13.30;1.40
2174;DHT22;1093;51.424;11.764;2022-10-14T07:48:54;13.40;1.40
2174;DHT22;1093;51.424;11.764;2022-10-14T07:51:21;13.40;1.40
2174;DHT22;1093;51.424;11.764;2022-10-14T07:53:48;13.40;1.40
2174;DHT22;1093;51.424;11.764;2022-10-14T07:56:16;13.60;1.40
2174;DHT22;1093;51.424;11.764;2022-10-14T07:58:44;13.70;1.40
2174;DHT22;1093;51.424;11.764;2022-10-14T08:01:11;13.80;1.40
2174;DHT22;1093;51.424;11.764;2022-10-14T08:03:39;14.00;1.40
2174;DHT22;1093;51.424;11.764;2022-10-14T08:06:06;14.10;1.40
2174;DHT22;1093;51.424;11.764;2022-10-14T08:08:34;14.20;1.40
2174;DHT22;1093;51.424;11.764;2022-10-14T08:11:02;14.30;1.40
2174;DHT22;1093;51.424;11.764;2022-10-14T08:13:29;14.40;1.40
2174;DHT22;1093;51.424;11.764;2022-10-14T08:15:58;14.50;1.40
2174;DHT22;1093;51.424;11.764;2022-10-14T08:18:25;14.50;1.40
2174;DHT22;1093;51.424;11.764;2022-10-14T08:20:52;14.70;1.40
2174;DHT22;1093;51.424;11.764;2022-10-14T08:23:19;14.70;1.40
2174;DHT22;1093;51.424;11.764;2022-10-14T08:25:47;14.70;1.40
2174;DHT22;1093;51.424;11.764;2022-10-14T08:28:15;14.80;1.40
2174;DHT22;1093;51.424;11.764;2022-10-14T08:30:42;14.90;1.40
2174;DHT22;1093;51.424;11.764;2022-10-14T08:33:10;15.00;1.40
2174;DHT22;1093;51.424;11.764;2022-10-14T08:35:38;15.20;1.40
2174;DHT22;1093;51.424;11.764;2022-10-14T08:38:05;15.40;1.40
2174;DHT22;1093;51.424;11.764;2022-10-14T08:40:42;15.50;1.40
2174;DHT22;1093;51.424;11.764;2022-10-14T08:43:17;15.60;1.40
2174;DHT22;1093;51.424;11.764;2022-10-14T08:45:48;15.60;1.40
2174;DHT22;1093;51.424;11.764;2022-10-14T08:48:23;15.60;1.40
2174;DHT22;1093;51.424;11.764;2022-10-14T08:50:53;15.70;1.40
2174;DHT22;1093;51.424;11.764;2022-10-14T08:53:27;15.80;1.40
2174;DHT22;1093;51.424;11.764;2022-10-14T08:55:57;15.90;1.40
2174;DHT22;1093;51.424;11.764;2022-10-14T08:58:27;16.00;1.40
2174;DHT22;1093;51.424;11.764;2022-10-14T09:00:58;16.10;1.40
2174;DHT22;1093;51.424;11.764;2022-10-14T09:03:30;16.10;1.40
2174;DHT22;1093;51.424;11.764;2022-10-14T09:06:01;16.30;1.40
2174;DHT22;1093;51.424;11.764;2022-10-14T09:08:34;16.30;1.40
2174;DHT22;1093;51.424;11.764;2022-10-14T09:11:03;16.40;1.40
2174;DHT22;1093;51.424;11.764;2022-10-14T09:13:34;16.30;1.40
2174;DHT22;1093;51.424;11.764;2022-10-14T09:16:06;16.50;1.40
2174;DHT22;1093;51.424;11.764;2022-10-14T09:18:38;16.60;1.40
2174;DHT22;1093;51.424;11.764;2022-10-14T09:21:24;16.60;1.40
2174;DHT22;1093;51.424;11.764;2022-10-14T09:23:56;16.70;1.40
2174;DHT22;1093;51.424;11.764;2022-10-14T09:26:28;16.80;1.40
2174;DHT22;1093;51.424;11.764;2022-10-14T09:28:56;16.80;1.40
2174;DHT22;1093;51.424;11.764;2022-10-14T09:31:23;16.80;1.40
2174;DHT22;1093;51.424;11.764;2022-10-14T09:33:51;16.80;1.40
2174;DHT22;1093;51.424;11.764;2022-10-14T09:36:20;16.80;1.40
2174;DHT22;1093;51.424;11.764;2022-10-14T09:38:48;16.80;1.40
2174;DHT22;1093;51.424;11.764;2022-10-14T09:41:19;17.00;1.40
2174;DHT22;1093;51.424;11.764;2022-10-14T09:44:16;17.00;1.40
2174;DHT22;1093;51.424;11.764;2022-10-14T09:46:47;17.00;1.40
2174;DHT22;1093;51.424;11.764;2022-10-14T09:49:18;17.00;1.40
2174;DHT22;1093;51.424;11.764;2022-10-14T09:51:48;17.00;1.40
2174;DHT22;1093;51.424;11.764;2022-10-14T09:54:23;16.90;1.40
2174;DHT22;1093;51.424;11.764;2022-10-14T09:56:59;17.00;1.40
2174;DHT22;1093;51.424;11.764;2022-10-14T09:59:27;17.10;1.40
2174;DHT22;1093;51.424;11.764;2022-10-14T10:01:55;17.10;1.40
2174;DHT22;1093;51.424;11.764;2022-10-14T10:04:32;17.20;1.40
2174;DHT22;1093;51.424;11.764;2022-10-14T10:07:01;17.30;1.40
2174;DHT22;1093;51.424;11.764;2022-10-14T10:09:31;17.40;1.40
2174;DHT22;1093;51.424;11.764;2022-10-14T10:11:58;17.40;1.40
2174;DHT22;1093;51.424;11.764;2022-10-14T10:14:27;17.60;1.40
2174;DHT22;1093;51.424;11.764;2022-10-14T10:17:14;17.70;1.40
2174;DHT22;1093;51.424;11.764;2022-10-14T10:19:45;17.70;1.40
2174;DHT22;1093;51.424;11.764;2022-10-14T10:22:23;17.70;1.40
2174;DHT22;1093;51.424;11.764;2022-10-14T10:27:38;17.80;1.40
2174;DHT22;1093;51.424;11.764;2022-10-14T10:30:18;17.80;1.40
2174;DHT22;1093;51.424;11.764;2022-10-14T10:32:54;17.90;1.40
2174;DHT22;1093;51.424;11.764;2022-10-14T10:35:26;17.90;1.40
2174;DHT22;1093;51.424;11.764;2022-10-14T10:38:03;18.00;1.40
2174;DHT22;1093;51.424;11.764;2022-10-14T10:40:38;18.10;1.40
2174;DHT22;1093;51.424;11.764;2022-10-14T10:43:28;18.00;1.40
2174;DHT22;1093;51.424;11.764;2022-10-14T10:46:18;18.10;1.40
2174;DHT22;1093;51.424;11.764;2022-10-14T10:48:52;18.10;1.40
2174;DHT22;1093;51.424;11.764;2022-10-14T10:51:27;18.10;1.40
2174;DHT22;1093;51.424;11.764;2022-10-14T10:54:05;18.20;1.40
2174;DHT22;1093;51.424;11.764;2022-10-14T10:56:38;18.10;1.40
2174;DHT22;1093;51.424;11.764;2022-10-14T10:59:27;18.20;1.40
2174;DHT22;1093;51.424;11.764;2022-10-14T11:02:15;18.20;1.40
2174;DHT22;1093;51.424;11.764;2022-10-14T11:04:47;18.30;1.40
2174;DHT22;1093;51.424;11.764;2022-10-14T11:07:20;18.30;1.40
2174;DHT22;1093;51.424;11.764;2022-10-14T11:10:22;18.30;1.40
2174;DHT22;1093;51.424;11.764;2022-10-14T11:13:18;18.30;1.40
2174;DHT22;1093;51.424;11.764;2022-10-14T11:15:49;18.40;1.40
2174;DHT22;1093;51.424;11.764;2022-10-14T11:18:25;18.30;1.40
2174;DHT22;1093;51.424;11.764;2022-10-14T11:21:05;18.40;1.40
2174;DHT22;1093;51.424;11.764;2022-10-14T11:23:56;18.40;1.40
2174;DHT22;1093;51.424;11.764;2022-10-14T11:26:45;18.40;1.40
2174;DHT22;1093;51.424;11.764;2022-10-14T11:29:34;18.40;1.40
2174;DHT22;1093;51.424;11.764;2022-10-14T11:32:11;18.50;1.40
2174;DHT22;1093;51.424;11.764;2022-10-14T11:34:43;18.50;1.40
2174;DHT22;1093;51.424;11.764;2022-10-14T11:37:24;18.60;1.40
2174;DHT22;1093;51.424;11.764;2022-10-14T11:39:57;18.60;1.40
2174;DHT22;1093;51.424;11.764;2022-10-14T11:42:39;18.60;1.40
2174;DHT22;1093;51.424;11.764;2022-10-14T11:48:23;18.70;1.40
2174;DHT22;1093;51.424;11.764;2022-10-14T11:50:55;18.70;1.40
2174;DHT22;1093;51.424;11.764;2022-10-14T11:53:34;18.60;1.40
2174;DHT22;1093;51.424;11.764;2022-10-14T11:56:10;18.70;1.40
2174;DHT22;1093;51.424;11.764;2022-10-14T11:58:40;18.90;1.40
2174;DHT22;1093;51.424;11.764;2022-10-14T12:01:11;18.90;1.40
2174;DHT22;1093;51.424;11.764;2022-10-14T12:03:46;18.90;1.40
2174;DHT22;1093;51.424;11.764;2022-10-14T12:06:18;18.90;1.40
2174;DHT22;1093;51.424;11.764;2022-10-14T12:08:49;18.90;1.40
2174;DHT22;1093;51.424;11.764;2022-10-14T12:11:27;18.90;1.40
2174;DHT22;1093;51.424;11.764;2022-10-14T12:14:02;18.90;1.40
2174;DHT22;1093;51.424;11.764;2022-10-14T12:16:30;18.90;1.40
2174;DHT22;1093;51.424;11.764;2022-10-14T12:18:59;18.90;1.40
2174;DHT22;1093;51.424;11.764;2022-10-14T12:21:30;19.00;1.40
2174;DHT22;1093;51.424;11.764;2022-10-14T12:24:02;19.00;1.40
2174;DHT22;1093;51.424;11.764;2022-10-14T12:26:45;19.10;1.40
2174;DHT22;1093;51.424;11.764;2022-10-14T12:29:17;19.10;1.40
2174;DHT22;1093;51.424;11.764;2022-10-14T12:31:48;19.10;1.40
2174;DHT22;1093;51.424;11.764;2022-10-14T12:34:28;19.10;1.40
2174;DHT22;1093;51.424;11.764;2022-10-14T12:36:57;19.20;1.40
2174;DHT22;1093;51.424;11.764;2022-10-14T12:39:31;19.20;1.40
2174;DHT22;1093;51.424;11.764;2022-10-14T12:42:01;19.20;1.40
2174;DHT22;1093;51.424;11.764;2022-10-14T12:44:33;19.30;1.40
2174;DHT22;1093;51.424;11.764;2022-10-14T12:47:02;19.20;1.40
2174;DHT22;1093;51.424;11.764;2022-10-14T12:49:33;19.30;1.40
2174;DHT22;1093;51.424;11.764;2022-10-14T12:52:03;19.20;1.40
2174;DHT22;1093;51.424;11.764;2022-10-14T12:54:32;19.30;1.40
2174;DHT22;1093;51.424;11.764;2022-10-14T12:57:03;19.30;1.40
2174;DHT22;1093;51.424;11.764;2022-10-14T12:59:33;19.30;1.40
2174;DHT22;1093;51.424;11.764;2022-10-14T13:02:02;19.30;1.40
2174;DHT22;1093;51.424;11.764;2022-10-14T13:04:31;19.40;1.40
2174;DHT22;1093;51.424;11.764;2022-10-14T13:07:25;19.40;1.40
2174;DHT22;1093;51.424;11.764;2022-10-14T13:09:56;19.40;1.40
2174;DHT22;1093;51.424;11.764;2022-10-14T13:12:40;19.30;1.40
2174;DHT22;1093;51.424;11.764;2022-10-14T13:15:46;19.40;1.40
2174;DHT22;1093;51.424;11.764;2022-10-14T13:18:47;19.40;1.40
2174;DHT22;1093;51.424;11.764;2022-10-14T13:21:51;19.30;1.40
2174;DHT22;1093;51.424;11.764;2022-10-14T13:24:24;19.30;1.40
2174;DHT22;1093;51.424;11.764;2022-10-14T13:27:06;19.30;1.40
2174;DHT22;1093;51.424;11.764;2022-10-14T13:29:55;19.20;1.40
2174;DHT22;1093;51.424;11.764;2022-10-14T13:32:32;19.20;1.40
2174;DHT22;1093;51.424;11.764;2022-10-14T13:35:07;19.30;1.40
2174;DHT22;1093;51.424;11.764;2022-10-14T13:37:39;19.30;1.40
2174;DHT22;1093;51.424;11.764;2022-10-14T13:40:18;19.30;1.40
2174;DHT22;1093;51.424;11.764;2022-10-14T13:42:49;19.40;1.40
2174;DHT22;1093;51.424;11.764;2022-10-14T13:45:18;19.40;1.40
2174;DHT22;1093;51.424;11.764;2022-10-14T13:47:47;19.40;1.40
2174;DHT22;1093;51.424;11.764;2022-10-14T13:50:18;19.50;1.40
2174;DHT22;1093;51.424;11.764;2022-10-14T13:52:49;19.60;1.40
2174;DHT22;1093;51.424;11.764;2022-10-14T13:55:19;19.70;1.40
2174;DHT22;1093;51.424;11.764;2022-10-14T13:57:59;19.70;1.40
2174;DHT22;1093;51.424;11.764;2022-10-14T14:00:29;19.70;1.40
2174;DHT22;1093;51.424;11.764;2022-10-14T14:02:57;19.70;1.40
2174;DHT22;1093;51.424;11.764;2022-10-14T14:05:25;19.70;1.40
2174;DHT22;1093;51.424;11.764;2022-10-14T14:07:54;19.70;1.40
2174;DHT22;1093;51.424;11.764;2022-10-14T14:10:23;19.70;1.40
2174;DHT22;1093;51.424;11.764;2022-10-14T14:12:50;19.70;1.40
2174;DHT22;1093;51.424;11.764;2022-10-14T14:15:21;19.60;1.40
2174;DHT22;1093;51.424;11.764;2022-10-14T14:17:50;19.50;1.40
2174;DHT22;1093;51.424;11.764;2022-10-14T14:20:21;19.50;1.40
2174;DHT22;1093;51.424;11.764;2022-10-14T14:22:49;19.50;1.40
2174;DHT22;1093;51.424;11.764;2022-10-14T14:25:22;19.50;1.40
2174;DHT22;1093;51.424;11.764;2022-10-14T14:27:51;19.40;1.40
2174;DHT22;1093;51.424;11.764;2022-10-14T14:30:26;19.40;1.40
2174;DHT22;1093;51.424;11.764;2022-10-14T14:32:58;19.40;1.40
2174;DHT22;1093;51.424;11.764;2022-10-14T14:35:26;19.40;1.40
2174;DHT22;1093;51.424;11.764;2022-10-14T14:37:54;19.30;1.40
2174;DHT22;1093;51.424;11.764;2022-10-14T14:40:22;19.30;1.40
2174;DHT22;1093;51.424;11.764;2022-10-14T14:42:51;19.30;1.40
2174;DHT22;1093;51.424;11.764;2022-10-14T14:45:21;19.20;1.40
2174;DHT22;1093;51.424;11.764;2022-10-14T14:47:52;19.30;1.40
2174;DHT22;1093;51.424;11.764;2022-10-14T14:50:26;19.40;1.40
2174;DHT22;1093;51.424;11.764;2022-10-14T14:52:54;19.30;1.40
2174;DHT22;1093;51.424;11.764;2022-10-14T14:55:39;19.20;1.40
2174;DHT22;1093;51.424;11.764;2022-10-14T14:58:22;19.20;1.40
2174;DHT22;1093;51.424;11.764;2022-10-14T15:00:50;19.10;1.40
2174;DHT22;1093;51.424;11.764;2022-10-14T15:03:19;19.10;1.40
2174;DHT22;1093;51.424;11.764;2022-10-14T15:05:55;19.10;1.40
2174;DHT22;1093;51.424;11.764;2022-10-14T15:08:24;19.20;1.40
2174;DHT22;1093;51.424;11.764;2022-10-14T15:10:53;19.10;1.40
2174;DHT22;1093;51.424;11.764;2022-10-14T15:13:28;19.10;1.40
2174;DHT22;1093;51.424;11.764;2022-10-14T15:15:55;19.10;1.40
2174;DHT22;1093;51.424;11.764;2022-10-14T15:18:23;19.00;1.40
2174;DHT22;1093;51.424;11.764;2022-10-14T15:21:03;19.00;1.40
2174;DHT22;1093;51.424;11.764;2022-10-14T15:23:38;19.00;1.40
2174;DHT22;1093;51.424;11.764;2022-10-14T15:26:20;18.90;1.40
2174;DHT22;1093;51.424;11.764;2022-10-14T15:29:02;18.90;1.40
2174;DHT22;1093;51.424;11.764;2022-10-14T15:31:29;18.90;1.40
2174;DHT22;1093;51.424;11.764;2022-10-14T15:33:56;18.90;1.40
2174;DHT22;1093;51.424;11.764;2022-10-14T15:36:25;18.90;1.40
2174;DHT22;1093;51.424;11.764;2022-10-14T15:38:54;18.90;1.40
2174;DHT22;1093;51.424;11.764;2022-10-14T15:41:22;18.80;1.40
2174;DHT22;1093;51.424;11.764;2022-10-14T15:43:49;18.80;1.40
2174;DHT22;1093;51.424;11.764;2022-10-14T15:46:16;18.80;1.40
2174;DHT22;1093;51.424;11.764;2022-10-14T15:49:03;18.70;1.40
2174;DHT22;1093;51.424;11.764;2022-10-14T15:51:31;18.60;1.40
2174;DHT22;1093;51.424;11.764;2022-10-14T15:53:58;18.50;1.40
2174;DHT22;1093;51.424;11.764;2022-10-14T15:56:25;18.50;1.40
2174;DHT22;1093;51.424;11.764;2022-10-14T15:58:52;18.50;1.40
2174;DHT22;1093;51.424;11.764;2022-10-14T16:01:20;18.30;1.40
2174;DHT22;1093;51.424;11.764;2022-10-14T16:03:48;18.30;1.40
2174;DHT22;1093;51.424;11.764;2022-10-14T16:06:17;18.30;1.40
2174;DHT22;1093;51.424;11.764;2022-10-14T16:08:45;18.30;1.40
2174;DHT22;1093;51.424;11.764;2022-10-14T16:11:18;18.30;1.40
2174;DHT22;1093;51.424;11.764;2022-10-14T16:13:45;18.30;1.40
2174;DHT22;1093;51.424;11.764;2022-10-14T16:16:12;18.30;1.40
2174;DHT22;1093;51.424;11.764;2022-10-14T16:18:41;18.20;1.40
2174;DHT22;1093;51.424;11.764;2022-10-14T16:21:09;18.10;1.40
2174;DHT22;1093;51.424;11.764;2022-10-14T16:23:39;18.10;1.40
2174;DHT22;1093;51.424;11.764;2022-10-14T16:26:09;18.00;1.40
2174;DHT22;1093;51.424;11.764;2022-10-14T16:28:38;18.00;1.40
2174;DHT22;1093;51.424;11.764;2022-10-14T16:31:05;18.00;1.40